Time;durP1;ratioP1;P1;durP2;ratioP2;P2;SDS_P1;SDS_P2;PMS_P1;PMS_P2;Temp;Humidity;BMP_temperature;BMP_pressure;BME280_temperature;BME280_humidity;BME280_pressure;Samples;Min_cycle;Max_cycle;Signal;HPM_P1;HPM_P2
2021/09/12 00:00:53;;;;;;;45.05;21.63;;;;;;;17.19;90.43;99988.50;5108042;28;20027;-66
2021/09/12 00:03:18;;;;;;;48.95;21.48;;;;;;;17.23;90.61;99989.22;5107937;28;20023;-67
2021/09/12 00:05:44;;;;;;;52.72;22.90;;;;;;;17.23;90.62;99981.34;5107932;28;20020;-67
2021/09/12 00:08:09;;;;;;;46.33;20.60;;;;;;;17.24;90.57;99975.19;5107500;28;20016;-67
2021/09/12 00:10:34;;;;;;;49.35;22.25;;;;;;;17.25;90.66;99979.53;5107914;28;20032;-67
2021/09/12 00:13:00;;;;;;;37.35;19.77;;;;;;;17.22;90.50;99966.53;5107839;28;20024;-67
2021/09/12 00:15:25;;;;;;;38.83;21.23;;;;;;;17.20;90.61;99960.50;5107728;28;20041;-67
2021/09/12 00:17:52;;;;;;;44.35;21.38;;;;;;;17.21;90.62;99962.19;5107837;28;20063;-67
2021/09/12 00:20:18;;;;;;;42.33;21.40;;;;;;;17.18;90.89;99959.72;5107403;28;20359;-67
2021/09/12 00:22:43;;;;;;;45.22;21.25;;;;;;;17.22;90.85;99964.75;5107795;28;20028;-67
2021/09/12 00:25:10;;;;;;;54.20;22.67;;;;;;;17.20;90.61;99960.50;5107394;28;20030;-67
2021/09/12 00:27:35;;;;;;;43.97;20.50;;;;;;;17.16;90.66;99957.16;5107658;28;20452;-68
2021/09/12 00:30:03;;;;;;;42.58;20.52;;;;;;;17.12;90.81;99949.50;5107354;28;20055;-68
2021/09/12 00:32:29;;;;;;;41.20;20.10;;;;;;;17.18;90.48;99949.22;5107444;28;20065;-67
2021/09/12 00:34:54;;;;;;;47.20;21.00;;;;;;;17.15;90.86;99951.97;5107560;28;20024;-67
2021/09/12 00:37:20;;;;;;;38.10;19.45;;;;;;;17.16;90.76;99949.28;5107407;28;20035;-67
2021/09/12 00:39:45;;;;;;;35.40;19.50;;;;;;;17.14;90.68;99948.50;5107172;28;20415;-68
2021/09/12 00:42:10;;;;;;;40.13;19.65;;;;;;;17.13;90.78;99938.94;5106191;28;20093;-68
2021/09/12 00:44:36;;;;;;;39.35;20.20;;;;;;;17.18;90.60;99941.34;5107170;28;20368;-67
2021/09/12 00:47:08;;;;;;;34.65;18.98;;;;;;;17.16;90.71;99935.31;5107264;28;20043;-67
2021/09/12 00:49:34;;;;;;;38.63;21.38;;;;;;;17.18;90.83;99936.09;5107009;28;20028;-67
2021/09/12 00:52:01;;;;;;;38.30;19.40;;;;;;;17.16;90.89;99937.94;5105930;28;20056;-67
2021/09/12 00:54:29;;;;;;;37.00;18.90;;;;;;;17.19;90.94;99933.41;5106877;28;20027;-67
2021/09/12 00:56:55;;;;;;;37.58;18.35;;;;;;;17.22;90.75;99940.31;5107163;28;20361;-67
2021/09/12 00:59:22;;;;;;;37.50;19.30;;;;;;;17.23;90.85;99934.13;5106672;28;20020;-67
2021/09/12 01:01:47;;;;;;;36.65;17.83;;;;;;;17.25;90.89;99937.56;5106995;28;20031;-68
2021/09/12 01:04:13;;;;;;;36.95;16.63;;;;;;;17.24;91.12;99943.69;5106841;28;20102;-67
2021/09/12 01:06:38;;;;;;;38.30;17.60;;;;;;;17.27;90.87;99947.97;5106779;28;20023;-67
2021/09/12 01:09:04;;;;;;;36.28;17.85;;;;;;;17.29;90.81;99943.50;5106641;28;20024;-67
2021/09/12 01:11:30;;;;;;;39.80;18.10;;;;;;;17.27;90.87;99942.72;5106829;28;20024;-69
2021/09/12 01:13:55;;;;;;;38.45;19.15;;;;;;;17.31;90.95;99939.91;5106556;28;20087;-68
2021/09/12 01:16:21;;;;;;;43.08;20.15;;;;;;;17.34;90.79;99942.41;5087934;28;20044;-67
2021/09/12 01:18:48;;;;;;;48.45;20.98;;;;;;;17.36;90.57;99930.97;5106405;28;20084;-68
2021/09/12 01:21:24;;;;;;;44.55;20.52;;;;;;;17.31;90.62;99924.16;5106358;28;20051;-68
2021/09/12 01:23:51;;;;;;;38.78;20.13;;;;;;;17.36;90.44;99925.72;5106628;28;20028;-68
2021/09/12 01:26:34;;;;;;;50.95;22.08;;;;;;;17.38;90.46;99918.66;5106586;28;20024;-68
2021/09/12 01:28:59;;;;;;;52.47;21.92;;;;;;;17.35;90.23;99916.97;5106140;28;20084;-66
2021/09/12 01:31:28;;;;;;;50.97;22.55;;;;;;;17.36;90.41;99917.84;5106308;28;20051;-67
2021/09/12 01:33:54;;;;;;;57.72;25.83;;;;;;;17.32;90.54;99912.75;5106048;28;20024;-66
2021/09/12 01:36:19;;;;;;;60.42;24.00;;;;;;;17.33;90.52;99906.56;5088222;28;20026;-67
2021/09/12 01:38:46;;;;;;;53.72;24.55;;;;;;;17.36;90.37;99912.59;5105849;28;20030;-67
2021/09/12 01:41:12;;;;;;;56.17;26.17;;;;;;;17.36;90.12;99907.34;5106136;28;20048;-67
2021/09/12 01:43:47;;;;;;;64.05;26.05;;;;;;;17.36;90.18;99908.22;5105685;28;20421;-66
2021/09/12 01:46:13;;;;;;;51.75;23.65;;;;;;;17.32;90.00;99906.63;5105950;28;20361;-67
2021/09/12 01:48:39;;;;;;;63.97;26.63;;;;;;;17.30;90.15;99909.31;5106032;28;20042;-66
2021/09/12 01:51:04;;;;;;;57.05;25.20;;;;;;;17.30;90.44;99898.00;5105976;28;20028;-68
2021/09/12 01:53:30;;;;;;;52.63;25.45;;;;;;;17.29;90.14;99897.13;5105826;28;20102;-67
2021/09/12 01:55:55;;;;;;;51.30;24.85;;;;;;;17.22;90.16;99898.34;5105894;28;20020;-68
2021/09/12 01:58:20;;;;;;;56.78;25.58;;;;;;;17.18;90.66;99902.88;5105459;28;20031;-67
2021/09/12 02:00:46;;;;;;;65.32;27.70;;;;;;;17.13;90.49;99883.00;5105833;28;20103;-68
2021/09/12 02:03:11;;;;;;;66.00;27.80;;;;;;;17.14;90.89;99892.59;5105090;28;20020;-68
2021/09/12 02:05:36;;;;;;;71.50;29.15;;;;;;;17.11;90.90;99888.31;5105594;28;20024;-68
2021/09/12 02:08:02;;;;;;;67.93;28.88;;;;;;;17.04;90.99;99876.38;5105504;28;20428;-68
2021/09/12 02:10:28;;;;;;;72.72;30.83;;;;;;;17.03;91.29;99875.50;5105544;28;20046;-68
2021/09/12 02:12:56;;;;;;;84.00;33.03;;;;;;;17.08;91.39;99876.19;5105271;28;20069;-68
2021/09/12 02:15:22;;;;;;;82.00;31.77;;;;;;;17.09;91.58;99879.69;5105602;28;20096;-68
2021/09/12 02:17:47;;;;;;;65.60;28.60;;;;;;;17.12;91.47;99876.91;5105619;28;20024;-68
2021/09/12 02:20:12;;;;;;;78.93;31.77;;;;;;;17.12;91.70;99876.06;5105167;28;20071;-69
2021/09/12 02:22:38;;;;;;;78.90;29.20;;;;;;;17.09;91.60;99883.13;5105610;28;20500;-68
2021/09/12 02:25:04;;;;;;;66.20;28.33;;;;;;;17.06;91.33;99861.41;5105494;28;20487;-68
2021/09/12 02:27:29;;;;;;;67.70;30.08;;;;;;;17.09;91.45;99875.25;5105544;28;20054;-68
2021/09/12 02:29:54;;;;;;;75.95;30.77;;;;;;;17.11;91.48;99869.13;5105029;28;20021;-69
2021/09/12 02:32:20;;;;;;;66.88;28.42;;;;;;;16.96;91.30;99848.69;5087171;28;20020;-69
2021/09/12 02:34:45;;;;;;;70.18;29.25;;;;;;;17.09;91.85;99862.16;5105427;28;20016;-68
2021/09/12 02:37:10;;;;;;;59.60;29.27;;;;;;;17.09;91.51;99859.53;5105404;28;20020;-68
2021/09/12 02:39:36;;;;;;;75.25;31.15;;;;;;;17.09;91.84;99848.22;5105100;28;20032;-68
2021/09/12 02:42:01;;;;;;;74.90;30.35;;;;;;;17.09;91.79;99854.28;5105327;28;20089;-68
2021/09/12 02:44:26;;;;;;;74.15;29.23;;;;;;;17.09;91.64;99851.66;5104969;28;20079;-68
2021/09/12 02:46:52;;;;;;;81.45;31.55;;;;;;;17.09;91.81;99845.59;5105375;28;20028;-68
2021/09/12 02:49:17;;;;;;;76.15;31.75;;;;;;;17.10;91.75;99847.28;5105067;28;20491;-69
2021/09/12 02:51:42;;;;;;;71.38;29.85;;;;;;;17.11;91.75;99843.72;5105220;28;20087;-69
2021/09/12 02:54:08;;;;;;;65.43;28.65;;;;;;;17.11;91.60;99840.28;5105372;28;20031;-68
2021/09/12 02:56:33;;;;;;;66.68;28.17;;;;;;;17.08;91.63;99839.47;5105179;28;20065;-68
2021/09/12 02:58:58;;;;;;;72.47;28.00;;;;;;;17.07;91.84;99850.88;5104945;28;20020;-67
2021/09/12 03:01:24;;;;;;;74.68;29.08;;;;;;;17.06;92.25;99845.69;5105282;28;20491;-68
2021/09/12 03:03:49;;;;;;;69.20;29.60;;;;;;;17.15;91.94;99844.44;5086844;28;20030;-67
2021/09/12 03:06:14;;;;;;;68.40;31.02;;;;;;;17.14;91.68;99848.00;5104846;28;20471;-67
2021/09/12 03:08:40;;;;;;;64.40;26.88;;;;;;;17.15;92.12;99841.81;5105071;28;20024;-67
2021/09/12 03:11:05;;;;;;;73.78;29.15;;;;;;;17.15;91.94;99845.31;5105313;28;20016;-66
2021/09/12 03:13:31;;;;;;;75.72;30.83;;;;;;;17.16;91.86;99846.13;5104843;28;20111;-65
2021/09/12 03:15:56;;;;;;;71.88;31.40;;;;;;;17.19;91.66;99846.00;5108119;28;20028;-66
2021/09/12 03:18:21;;;;;;;80.50;31.60;;;;;;;17.21;91.59;99852.03;5108441;28;20055;-65
2021/09/12 03:20:47;;;;;;;79.25;32.08;;;;;;;17.21;91.57;99846.78;5108604;28;20048;-67
2021/09/12 03:23:12;;;;;;;72.00;29.35;;;;;;;17.21;91.94;99846.78;5108941;28;20453;-65
2021/09/12 03:25:37;;;;;;;74.10;31.15;;;;;;;17.23;91.78;99839.72;5108892;28;20015;-66
2021/09/12 03:28:03;;;;;;;74.13;31.70;;;;;;;17.20;91.75;99845.09;5108393;28;20383;-65
2021/09/12 03:30:28;;;;;;;74.05;30.55;;;;;;;17.21;91.64;99834.53;5108662;28;20024;-67
2021/09/12 03:32:53;;;;;;;75.70;29.98;;;;;;;17.24;91.48;99835.31;5108694;28;20031;-66
2021/09/12 03:35:19;;;;;;;70.00;29.73;;;;;;;17.26;91.51;99843.94;5108545;28;20048;-65
2021/09/12 03:37:44;;;;;;;63.28;29.08;;;;;;;17.28;91.45;99836.88;5108673;28;20127;-67
2021/09/12 03:40:10;;;;;;;69.00;29.70;;;;;;;17.32;91.13;99833.19;5090089;28;20111;-67
2021/09/12 03:42:36;;;;;;;59.88;28.25;;;;;;;17.30;91.08;99832.41;5108218;28;20080;-66
2021/09/12 03:45:01;;;;;;;60.55;28.02;;;;;;;17.31;90.96;99836.72;5108119;28;20042;-66
2021/09/12 03:47:27;;;;;;;56.13;27.23;;;;;;;17.29;90.83;99831.56;5108222;28;20026;-67
2021/09/12 03:49:52;;;;;;;57.67;27.05;;;;;;;17.27;90.94;99829.94;5108220;28;20495;-67
2021/09/12 03:52:18;;;;;;;64.20;27.33;;;;;;;17.25;91.04;99834.38;5108318;28;20045;-67
2021/09/12 03:54:43;;;;;;;59.30;27.42;;;;;;;17.24;91.00;99830.91;5108104;28;20070;-67
2021/09/12 03:57:08;;;;;;;51.28;23.55;;;;;;;17.25;90.96;99830.00;5108286;28;20024;-67
2021/09/12 03:59:34;;;;;;;53.97;25.08;;;;;;;17.20;90.70;99821.50;5107690;28;20077;-65
2021/09/12 04:01:59;;;;;;;59.13;26.25;;;;;;;17.22;90.84;99825.72;5089862;28;20437;-66
2021/09/12 04:04:24;;;;;;;51.58;24.63;;;;;;;17.23;90.98;99823.97;5107821;28;20028;-66
2021/09/12 04:06:50;;;;;;;59.83;24.73;;;;;;;17.21;91.03;99818.78;5108098;28;20020;-66
2021/09/12 04:09:15;;;;;;;47.33;23.83;;;;;;;17.21;90.76;99823.19;5107746;28;20039;-67
2021/09/12 04:11:41;;;;;;;44.80;22.00;;;;;;;17.20;90.84;99826.72;5107790;28;20028;-66
2021/09/12 04:14:06;;;;;;;44.78;21.92;;;;;;;17.24;90.33;99812.53;5107788;28;20083;-66
2021/09/12 04:16:31;;;;;;;48.92;22.38;;;;;;;17.26;90.42;99815.09;5107655;28;20608;-67
2021/09/12 04:18:57;;;;;;;38.95;21.30;;;;;;;17.24;90.65;99814.34;5107628;28;20387;-66
2021/09/12 04:21:22;;;;;;;48.85;24.00;;;;;;;17.24;90.26;99815.16;5107548;28;20085;-66
2021/09/12 04:23:48;;;;;;;51.33;23.42;;;;;;;17.24;90.24;99819.59;5107668;28;20044;-66
2021/09/12 04:26:13;;;;;;;47.53;20.02;;;;;;;17.20;90.49;99826.72;5108100;28;20027;-66
2021/09/12 04:28:38;;;;;;;38.60;20.45;;;;;;;17.21;90.17;99826.66;5108060;28;20531;-68
2021/09/12 04:31:04;;;;;;;43.50;20.52;;;;;;;17.15;90.32;99816.44;5109385;28;20024;-68
2021/09/12 04:33:29;;;;;;;42.40;21.52;;;;;;;17.18;90.45;99818.06;5107989;28;20024;-67
2021/09/12 04:35:55;;;;;;;40.55;21.95;;;;;;;17.17;90.47;99819.84;5108919;28;20027;-67
2021/09/12 04:38:21;;;;;;;48.10;21.08;;;;;;;17.19;90.52;99817.16;5108522;28;20430;-68
2021/09/12 04:40:46;;;;;;;46.45;22.83;;;;;;;17.20;90.13;99827.56;5107417;28;20283;-68
2021/09/12 04:43:11;;;;;;;52.90;22.65;;;;;;;17.21;90.54;99831.06;5107407;28;20057;-66
2021/09/12 04:45:37;;;;;;;41.45;20.70;;;;;;;17.21;90.12;99825.81;5107212;28;20090;-67
2021/09/12 04:48:02;;;;;;;39.05;20.20;;;;;;;17.25;90.15;99826.53;5089215;28;20101;-67
2021/09/12 04:50:28;;;;;;;36.72;17.80;;;;;;;17.22;90.06;99820.50;5107168;28;20104;-67
2021/09/12 04:52:53;;;;;;;37.17;18.50;;;;;;;17.22;90.09;99827.53;5107177;28;20391;-67
2021/09/12 04:55:19;;;;;;;39.05;19.17;;;;;;;17.22;89.78;99827.53;5107118;28;20016;-67
2021/09/12 04:57:45;;;;;;;35.05;19.23;;;;;;;17.21;89.86;99823.19;5106844;28;20086;-68
2021/09/12 05:00:11;;;;;;;33.97;18.77;;;;;;;17.20;90.13;99817.06;5106712;28;20073;-67
2021/09/12 05:02:36;;;;;;;38.88;19.98;;;;;;;17.17;89.99;99821.63;5106756;28;20349;-67
2021/09/12 05:05:02;;;;;;;35.10;17.83;;;;;;;17.18;89.84;99818.06;5106890;28;20087;-68
2021/09/12 05:07:27;;;;;;;37.33;18.20;;;;;;;17.17;89.77;99822.47;5106946;28;20024;-67
2021/09/12 05:09:53;;;;;;;32.97;16.05;;;;;;;17.17;90.26;99830.31;5106819;28;20077;-67
2021/09/12 05:12:18;;;;;;;36.95;16.77;;;;;;;17.16;89.83;99822.53;5106756;28;20035;-66
2021/09/12 05:14:43;;;;;;;27.98;15.98;;;;;;;17.09;89.90;99809.69;5106354;28;20023;-66
2021/09/12 05:17:09;;;;;;;27.00;14.73;;;;;;;17.17;89.91;99819.00;5106802;28;20103;-66
2021/09/12 05:19:34;;;;;;;27.33;13.52;;;;;;;17.14;89.78;99821.78;5106347;28;20496;-66
2021/09/12 05:21:59;;;;;;;31.17;14.48;;;;;;;17.16;89.79;99830.41;5088435;28;20074;-66
2021/09/12 05:24:25;;;;;;;19.17;12.60;;;;;;;17.14;89.84;99824.41;5106675;28;20020;-66
2021/09/12 05:26:50;;;;;;;23.13;12.70;;;;;;;17.13;89.90;99828.78;5106406;28;20028;-66
2021/09/12 05:29:16;;;;;;;25.85;13.40;;;;;;;17.16;89.92;99828.63;5106071;28;20027;-66
2021/09/12 05:31:42;;;;;;;24.40;12.52;;;;;;;17.17;89.71;99821.63;5106637;28;20030;-66
2021/09/12 05:34:07;;;;;;;20.65;11.52;;;;;;;17.18;89.55;99825.94;5106441;28;20062;-67
2021/09/12 05:36:32;;;;;;;20.00;11.05;;;;;;;17.15;89.13;99821.69;5105905;28;20430;-69
2021/09/12 05:38:58;;;;;;;25.42;11.25;;;;;;;17.11;89.21;99827.16;5105657;28;20051;-66
2021/09/12 05:41:23;;;;;;;17.17;8.15;;;;;;;16.99;89.30;99818.88;5106058;28;20031;-67
2021/09/12 05:43:49;;;;;;;20.08;10.65;;;;;;;16.88;89.46;99815.88;5105974;28;20039;-67
2021/09/12 05:46:14;;;;;;;19.20;10.88;;;;;;;16.78;90.06;99826.78;5105805;28;20031;-67
2021/09/12 05:48:39;;;;;;;30.33;12.23;;;;;;;16.75;90.39;99824.28;5106055;28;20023;-67
2021/09/12 05:51:05;;;;;;;35.38;14.10;;;;;;;16.73;90.37;99826.97;5106210;28;20382;-67
2021/09/12 05:53:30;;;;;;;23.02;11.00;;;;;;;16.68;90.60;99844.66;5106152;28;20106;-68
2021/09/12 05:55:55;;;;;;;25.83;12.45;;;;;;;16.63;91.23;99841.38;5105990;28;20074;-67
2021/09/12 05:58:21;;;;;;;28.77;11.55;;;;;;;16.62;91.56;99842.31;5105659;28;20134;-67
2021/09/12 06:00:46;;;;;;;18.63;10.15;;;;;;;16.62;91.68;99844.94;5087765;28;20027;-68
2021/09/12 06:03:12;;;;;;;19.50;8.88;;;;;;;16.62;91.61;99839.69;5105879;28;20020;-68
2021/09/12 06:05:37;;;;;;;17.52;9.10;;;;;;;16.58;91.81;99838.97;5105912;28;20044;-68
2021/09/12 06:08:03;;;;;;;17.73;7.88;;;;;;;16.56;92.28;99840.81;5105831;28;20024;-68
2021/09/12 06:10:29;;;;;;;14.23;6.63;;;;;;;16.59;92.26;99838.06;5105595;28;20035;-67
2021/09/12 06:12:55;;;;;;;15.38;7.40;;;;;;;16.62;92.83;99829.22;5106002;28;20020;-67
2021/09/12 06:15:20;;;;;;;21.70;7.70;;;;;;;16.71;92.77;99836.66;5105613;28;20504;-66
2021/09/12 06:17:45;;;;;;;13.90;4.63;;;;;;;16.80;92.39;99832.81;5105690;28;20046;-67
2021/09/12 06:20:11;;;;;;;11.70;5.47;;;;;;;16.83;92.73;99832.69;5105366;28;20020;-66
2021/09/12 06:22:48;;;;;;;6.72;4.05;;;;;;;16.95;92.77;99838.28;5105491;28;20024;-66
2021/09/12 06:25:14;;;;;;;12.07;3.88;;;;;;;17.18;92.90;99836.44;5105528;28;20057;-66
2021/09/12 06:27:40;;;;;;;4.57;2.65;;;;;;;17.42;93.26;99844.09;5105761;28;20106;-66
2021/09/12 06:30:08;;;;;;;6.15;3.10;;;;;;;17.45;91.72;99838.72;5105318;28;20088;-65
2021/09/12 06:32:35;;;;;;;5.22;2.53;;;;;;;17.46;91.58;99840.41;5105524;28;20050;-66
2021/09/12 06:35:00;;;;;;;5.70;2.80;;;;;;;17.52;91.82;99834.03;5105501;28;20020;-66
2021/09/12 06:37:26;;;;;;;7.53;3.53;;;;;;;17.51;91.46;99841.03;5105412;28;20045;-65
2021/09/12 06:39:52;;;;;;;6.55;3.22;;;;;;;17.44;89.73;99835.22;5105513;28;20020;-66
2021/09/12 06:42:17;;;;;;;4.30;2.50;;;;;;;17.31;89.70;99840.22;5105274;28;20067;-65
2021/09/12 06:44:43;;;;;;;5.20;2.22;;;;;;;17.27;89.61;99843.88;5104879;28;20031;-65
2021/09/12 06:47:09;;;;;;;5.25;2.10;;;;;;;17.23;89.59;99842.34;5105435;28;20031;-64
2021/09/12 06:49:34;;;;;;;3.70;2.10;;;;;;;17.19;90.01;99843.38;5107716;28;20020;-64
2021/09/12 06:52:00;;;;;;;6.60;2.85;;;;;;;17.16;89.86;99843.50;5109588;28;20023;-65
2021/09/12 06:54:26;;;;;;;5.50;2.50;;;;;;;17.16;90.07;99838.25;5109362;28;20042;-64
2021/09/12 06:56:51;;;;;;;6.05;2.60;;;;;;;17.16;90.26;99838.25;5109234;28;20020;-64
2021/09/12 06:59:17;;;;;;;4.55;2.20;;;;;;;17.16;90.26;99838.25;5108901;28;20544;-64
2021/09/12 07:01:42;;;;;;;6.50;2.30;;;;;;;17.12;90.00;99831.47;5108922;28;20055;-65
2021/09/12 07:04:08;;;;;;;6.75;3.45;;;;;;;17.08;90.17;99833.38;5090809;28;20024;-66
2021/09/12 07:06:33;;;;;;;5.15;2.95;;;;;;;17.09;90.47;99832.47;5108850;28;20052;-65
2021/09/12 07:08:58;;;;;;;5.45;2.70;;;;;;;17.15;90.72;99836.56;5108747;28;20058;-65
2021/09/12 07:11:24;;;;;;;6.32;3.00;;;;;;;17.20;90.47;99824.94;5108749;28;20047;-65
2021/09/12 07:13:49;;;;;;;6.70;2.70;;;;;;;17.15;89.97;99833.94;5108810;28;20024;-66
2021/09/12 07:16:14;;;;;;;12.85;3.85;;;;;;;16.96;90.17;99834.75;5109173;28;20034;-65
2021/09/12 07:18:40;;;;;;;10.77;4.45;;;;;;;16.82;90.67;99830.97;5108805;28;20028;-66
2021/09/12 07:21:05;;;;;;;13.05;4.53;;;;;;;16.75;90.99;99833.91;5090139;28;20048;-66
2021/09/12 07:23:31;;;;;;;14.38;4.82;;;;;;;16.66;91.44;99829.94;5108629;28;20024;-65
2021/09/12 07:25:56;;;;;;;13.77;6.10;;;;;;;16.63;91.55;99838.75;5108672;28;20032;-64
2021/09/12 07:28:22;;;;;;;15.65;5.68;;;;;;;16.67;91.77;99831.63;5108450;28;20024;-64
2021/09/12 07:30:47;;;;;;;13.77;6.00;;;;;;;16.69;91.90;99837.66;5108819;28;20383;-65
2021/09/12 07:33:12;;;;;;;14.82;5.85;;;;;;;16.72;92.04;99835.75;5108601;28;20028;-65
2021/09/12 07:35:38;;;;;;;9.85;5.25;;;;;;;16.77;92.42;99834.72;5108527;28;20031;-64
2021/09/12 07:38:03;;;;;;;18.58;6.10;;;;;;;16.83;92.23;99837.91;5108426;28;20028;-64
2021/09/12 07:40:29;;;;;;;11.73;5.25;;;;;;;16.86;91.88;99847.41;5108206;28;20016;-64
2021/09/12 07:42:54;;;;;;;11.70;5.40;;;;;;;16.89;92.01;99844.66;5108263;28;20032;-65
2021/09/12 07:45:19;;;;;;;15.35;6.00;;;;;;;16.92;91.70;99851.53;5108285;28;20020;-65
2021/09/12 07:47:45;;;;;;;16.38;5.68;;;;;;;16.93;91.81;99846.22;5108527;28;20028;-66
2021/09/12 07:50:11;;;;;;;15.05;4.88;;;;;;;16.99;91.91;99855.59;5108047;28;20111;-66
2021/09/12 07:52:42;;;;;;;14.80;5.55;;;;;;;17.06;91.87;99859.63;5108398;28;20028;-65
2021/09/12 07:55:08;;;;;;;8.85;5.00;;;;;;;17.10;91.64;99860.38;5107895;28;20020;-66
2021/09/12 07:57:33;;;;;;;13.40;6.10;;;;;;;17.13;91.20;99865.50;5108034;28;20111;-66
2021/09/12 07:59:58;;;;;;;11.85;5.75;;;;;;;17.13;91.34;99862.00;5107072;28;20032;-66
2021/09/12 08:02:24;;;;;;;12.07;5.63;;;;;;;17.11;90.53;99866.50;5107842;28;20031;-67
2021/09/12 08:04:49;;;;;;;14.68;5.00;;;;;;;17.12;90.83;99862.94;5107731;28;20028;-67
2021/09/12 08:07:15;;;;;;;13.68;5.38;;;;;;;17.12;90.86;99862.94;5107691;28;20028;-68
2021/09/12 08:09:40;;;;;;;10.75;4.38;;;;;;;17.13;90.84;99869.88;5107516;28;20056;-69
2021/09/12 08:12:06;;;;;;;10.52;4.65;;;;;;;17.08;90.28;99870.94;5108024;28;20031;-70
2021/09/12 08:14:31;;;;;;;14.48;4.93;;;;;;;17.03;89.76;99869.44;5107720;28;20045;-69
2021/09/12 08:16:57;;;;;;;11.98;5.45;;;;;;;16.95;90.05;99877.59;5107851;28;20027;-70
2021/09/12 08:19:22;;;;;;;13.18;5.28;;;;;;;16.91;90.03;99879.53;5107821;28;20020;-68
2021/09/12 08:21:47;;;;;;;16.65;5.35;;;;;;;16.87;90.09;99874.50;5107477;28;20491;-68
2021/09/12 08:24:13;;;;;;;13.30;5.38;;;;;;;16.79;90.21;99878.28;5107541;28;20031;-69
2021/09/12 08:26:39;;;;;;;10.57;4.93;;;;;;;16.82;90.59;99880.75;5107538;28;20024;-70
2021/09/12 08:29:04;;;;;;;10.13;5.18;;;;;;;16.79;90.38;99883.50;5107252;28;20074;-70
2021/09/12 08:31:30;;;;;;;13.35;5.57;;;;;;;16.77;90.29;99880.13;5107533;28;20024;-70
2021/09/12 08:33:55;;;;;;;8.80;4.63;;;;;;;16.73;90.19;99879.41;5107307;28;20028;-70
2021/09/12 08:36:21;;;;;;;14.07;5.10;;;;;;;16.71;90.30;99875.13;5107226;28;20023;-70
2021/09/12 08:38:46;;;;;;;13.82;4.80;;;;;;;16.69;90.91;99883.06;5107285;28;20020;-69
2021/09/12 08:41:13;;;;;;;14.20;5.35;;;;;;;16.65;90.45;99876.25;5107015;28;20062;-68
2021/09/12 08:43:40;;;;;;;16.73;6.22;;;;;;;16.67;90.94;99881.44;5107206;28;20054;-68
2021/09/12 08:46:05;;;;;;;10.05;5.78;;;;;;;16.69;90.92;99884.84;5107490;28;20061;-68
2021/09/12 08:48:31;;;;;;;10.98;5.13;;;;;;;16.71;91.25;99883.00;5107036;28;20062;-68
2021/09/12 08:50:56;;;;;;;12.77;4.85;;;;;;;16.73;90.92;99879.41;5107017;28;20028;-68
2021/09/12 08:53:22;;;;;;;11.98;5.50;;;;;;;16.80;90.99;99881.75;5107053;28;20020;-68
2021/09/12 08:55:47;;;;;;;15.45;5.80;;;;;;;16.86;91.12;99884.13;5106819;28;20012;-68
2021/09/12 08:58:12;;;;;;;10.85;4.25;;;;;;;16.90;91.18;99880.44;5106898;28;20116;-67
2021/09/12 09:00:45;;;;;;;16.50;5.30;;;;;;;16.90;90.61;99876.97;5106346;28;20038;-72
2021/09/12 09:03:11;;;;;;;11.70;4.90;;;;;;;16.89;90.67;99873.50;5088431;28;20024;-67
2021/09/12 09:05:40;;;;;;;11.10;5.15;;;;;;;16.98;90.83;99875.72;5106484;28;20085;-68
2021/09/12 09:08:13;;;;;;;13.77;5.10;;;;;;;17.05;90.27;99881.53;5106593;28;20048;-67
2021/09/12 09:10:41;;;;;;;12.32;5.05;;;;;;;17.11;90.66;99884.84;5106530;28;20108;-67
2021/09/12 09:13:37;;;;;;;20.23;4.72;;;;;;;17.15;90.20;99889.88;5105691;28;20047;-66
2021/09/12 09:16:07;;;;;;;10.00;4.38;;;;;;;17.17;90.08;99888.03;5098004;28;20039;-66
2021/09/12 09:18:39;;;;;;;7.88;4.57;;;;;;;17.18;89.92;99884.50;5106562;28;20026;-66
2021/09/12 09:21:27;;;;;;;9.32;4.47;;;;;;;17.26;89.74;99883.28;5106000;28;20072;-66
2021/09/12 09:24:06;;;;;;;10.73;4.05;;;;;;;17.24;89.61;99883.38;5106277;28;20381;-66
2021/09/12 09:26:35;;;;;;;6.95;3.22;;;;;;;17.34;89.63;99887.28;5106380;28;20023;-66
2021/09/12 09:29:00;;;;;;;7.45;3.20;;;;;;;17.45;89.49;99892.06;5088218;28;20020;-65
2021/09/12 09:31:25;;;;;;;4.13;2.85;;;;;;;17.52;88.85;99886.53;5105878;28;20115;-65
2021/09/12 09:33:51;;;;;;;7.28;2.42;;;;;;;17.51;87.89;99888.28;5105864;28;20027;-67
2021/09/12 09:36:18;;;;;;;8.25;3.42;;;;;;;17.52;88.06;99876.88;5106005;28;20070;-66
2021/09/12 09:38:47;;;;;;;5.68;2.58;;;;;;;17.57;88.46;99885.38;5106267;28;20062;-67
2021/09/12 09:41:14;;;;;;;3.08;2.58;;;;;;;17.71;87.49;99886.53;5088181;28;20024;-66
2021/09/12 09:43:50;;;;;;;9.95;2.83;;;;;;;17.74;86.98;99878.50;5088158;28;20049;-66
2021/09/12 09:46:36;;;;;;;7.32;2.67;;;;;;;17.68;86.78;99895.38;5087811;28;20057;-67
2021/09/12 09:49:27;;;;;;;6.82;2.85;;;;;;;17.69;86.60;99894.47;5087532;28;20024;-67
2021/09/12 09:51:58;;;;;;;3.63;2.27;;;;;;;17.70;86.87;99882.16;5105778;28;20114;-67
2021/09/12 09:54:26;;;;;;;7.80;2.50;;;;;;;17.74;86.70;99882.88;5087495;28;20046;-68
2021/09/12 09:56:53;;;;;;;6.88;2.50;;;;;;;17.77;86.23;99880.97;5105488;28;20024;-67
2021/09/12 09:59:20;;;;;;;3.75;2.05;;;;;;;17.82;86.34;99884.25;5105316;28;20038;-67
2021/09/12 10:01:50;;;;;;;7.93;2.63;;;;;;;17.94;86.21;99879.31;5087583;28;20020;-67
2021/09/12 10:04:18;;;;;;;8.45;2.58;;;;;;;18.04;86.00;99882.34;5105746;28;20403;-68
2021/09/12 10:06:45;;;;;;;8.57;2.42;;;;;;;18.04;85.27;99885.84;5105573;28;20035;-67
2021/09/12 10:09:12;;;;;;;6.60;3.03;;;;;;;18.00;85.23;99886.91;5105286;28;20072;-67
2021/09/12 10:11:44;;;;;;;8.73;3.10;;;;;;;17.94;85.11;99885.41;5105590;28;20024;-67
2021/09/12 10:14:13;;;;;;;10.23;3.22;;;;;;;17.94;85.08;99890.69;5105689;28;20043;-66
2021/09/12 10:16:40;;;;;;;9.48;3.00;;;;;;;17.91;84.68;99887.34;5105791;28;20012;-66
2021/09/12 10:19:06;;;;;;;6.68;2.55;;;;;;;17.83;84.48;99878.06;5105268;28;20028;-66
2021/09/12 10:21:31;;;;;;;9.55;2.88;;;;;;;17.81;84.86;99892.19;5105286;28;20050;-66
2021/09/12 10:23:58;;;;;;;6.57;3.38;;;;;;;17.78;85.51;99885.28;5105305;28;20027;-67
2021/09/12 10:26:32;;;;;;;9.65;3.58;;;;;;;17.79;85.36;99894.91;5105510;28;20024;-67
2021/09/12 10:28:59;;;;;;;9.15;3.00;;;;;;;17.78;85.57;99898.44;5105428;28;20099;-68
2021/09/12 10:31:27;;;;;;;6.80;3.03;;;;;;;17.74;84.98;99906.50;5105074;28;20080;-68
2021/09/12 10:34:12;;;;;;;6.95;2.97;;;;;;;17.69;85.01;99893.59;5105632;28;20020;-66
2021/09/12 10:36:43;;;;;;;5.18;2.72;;;;;;;17.68;85.26;99890.13;5105315;28;20042;-67
2021/09/12 10:39:23;;;;;;;9.30;3.17;;;;;;;17.78;85.48;99895.78;5105240;28;20032;-67
2021/09/12 10:42:13;;;;;;;6.25;3.17;;;;;;;17.93;85.53;99875.00;5105403;28;20035;-67
2021/09/12 10:44:39;;;;;;;8.27;2.65;;;;;;;17.95;85.10;99878.41;5105240;28;20016;-67
2021/09/12 10:47:10;;;;;;;7.50;3.40;;;;;;;17.93;84.36;99880.25;5087166;28;20456;-67
2021/09/12 10:49:36;;;;;;;9.23;3.35;;;;;;;17.92;84.97;99878.56;5105267;28;20032;-67
2021/09/12 10:52:02;;;;;;;11.63;3.28;;;;;;;17.97;84.58;99876.56;5105352;28;20039;-67
2021/09/12 10:54:28;;;;;;;7.45;2.65;;;;;;;17.98;85.18;99875.63;5105459;28;20046;-67
2021/09/12 10:57:07;;;;;;;10.27;3.35;;;;;;;18.04;84.55;99883.22;5105130;28;20023;-68
2021/09/12 10:59:33;;;;;;;9.43;3.60;;;;;;;18.06;84.67;99877.88;5104790;28;20084;-67
2021/09/12 11:01:59;;;;;;;6.50;2.70;;;;;;;18.04;84.50;99872.72;5087023;28;20016;-67
2021/09/12 11:04:31;;;;;;;7.63;2.60;;;;;;;17.99;83.66;99874.69;5104995;28;20146;-67
2021/09/12 11:07:02;;;;;;;7.88;2.53;;;;;;;17.92;83.66;99868.06;5105303;28;20016;-67
2021/09/12 11:09:28;;;;;;;10.77;2.70;;;;;;;17.96;83.85;99878.34;5104878;28;20058;-67
2021/09/12 11:12:05;;;;;;;9.07;2.30;;;;;;;18.05;83.82;99873.56;5104976;28;20087;-68
2021/09/12 11:14:31;;;;;;;6.07;2.67;;;;;;;18.13;83.49;99870.59;5104950;28;20028;-67
2021/09/12 11:17:14;;;;;;;7.63;2.95;;;;;;;18.19;83.51;99872.91;5105207;28;20105;-66
2021/09/12 11:19:51;;;;;;;7.55;3.15;;;;;;;18.23;83.46;99863.94;5104534;28;20107;-66